Flight Track Log - Related Links

Times and Time Zones

All times are in EDT time to prevent confusion due to time zone crossing. See the RPA4910 flight status page for this flight to view local times or setup timezone preferences in your user account.

Time Position Orientation Groundspeed Altitude Reporting Facility
EDT Latitude Longitude Course Direction KTS MPH feet Rate Location/Type
Wed 08:31:36 PM 42.7694 -73.8089 317° Northwest 176 203 1,200  Level Boston Center
Wed 08:32:49 PM 42.8125 -73.8636 317° Northwest 216 249 4,000 2,089 Climbing Boston Center
Wed 08:33:51 PM 42.7969 -73.9397 254° West 234 269 5,900 2,115 Climbing Boston Center
Wed 08:34:51 PM 42.7811 -74.0242 256° West 234 269 8,300 2,350 Climbing Boston Center
Wed 08:35:51 PM 42.7258 -74.0964 224° Southwest 245 282 10,600 2,150 Climbing Boston Center
Wed 08:36:51 PM 42.6769 -74.1769 230° Southwest 270 311 12,600 1,900 Climbing Boston Center
Wed 08:37:51 PM 42.6297 -74.2547 230° Southwest 270 311 14,400 1,850 Climbing Boston Center
Wed 08:38:51 PM 42.5889 -74.3353 235° Southwest 270 311 16,300 1,700 Climbing Boston Center
Wed 08:39:51 PM 42.5481 -74.4100 233° Southwest 265 305 17,800 1,400 Climbing Boston Center
Wed 08:40:51 PM 42.5175 -74.4794 239° Southwest 260 299 19,100 1,100 Climbing Boston Center
Wed 08:41:51 PM 42.4744 -74.5569 233° Southwest 260 299 20,000 450 Climbing Boston Center
Wed 08:42:51 PM 42.4289 -74.6453 235° Southwest 272 313 20,000  Level Boston Center
Wed 08:43:51 PM 42.3772 -74.7392 233° Southwest 296 341 20,000  Level Boston Center
Wed 08:45:42 PM 42.2753 -74.9297 234° Southwest 311 358 20,000  Level New York Center
Wed 08:46:43 PM 42.2239 -75.0275 235° Southwest 331 381 20,000  Level New York Center
Wed 08:47:41 PM 42.1681 -75.1272 233° Southwest 336 387 20,000  Level New York Center
Wed 08:48:41 PM 42.1144 -75.2272 234° Southwest 341 392 20,000  Level New York Center
Wed 08:49:42 PM 42.0567 -75.3294 233° Southwest 341 392 20,000  Level New York Center
Wed 08:50:42 PM 42.0089 -75.4322 238° Southwest 341 392 20,000 -200 Level New York Center
Wed 08:51:42 PM 41.9547 -75.5369 235° Southwest 341 392 19,600 -706 Descending New York Center
Wed 08:52:41 PM 41.9006 -75.6392 235° Southwest 341 392 18,600 -1,059 Descending New York Center
Wed 08:53:41 PM 41.8197 -75.7306 220° Southwest 346 398 17,500 -1,008 Descending New York Center
Wed 08:54:40 PM 41.7542 -75.8033 220° Southwest 346 398 16,600 -700 Descending New York Center
Wed 08:55:41 PM 41.6733 -75.8919 219° Southwest 346 398 16,100 -246 Descending New York Center
Wed 08:56:42 PM 41.6053 -75.9725 222° Southwest 341 392 16,100  Level New York Center
Wed 08:57:40 PM 41.5375 -76.0478 220° Southwest 336 387 16,100  Level New York Center
Wed 08:58:41 PM 41.4761 -76.1175 220° Southwest 336 387 16,100 -49 Level New York Center
Wed 08:59:43 PM 41.4058 -76.1978 221° Southwest 336 387 16,000 -50 Descending New York Center
Wed 09:00:42 PM 41.3244 -76.2878 220° Southwest 336 387 16,000  Level New York Center
Wed 09:01:42 PM 41.2497 -76.3703 220° Southwest 341 392 16,000  Level New York Center
Wed 09:02:43 PM 41.1839 -76.4447 220° Southwest 346 398 16,000  Level New York Center
Wed 09:03:41 PM 41.1089 -76.5292 220° Southwest 346 398 16,000  Level New York Center
Wed 09:04:42 PM 41.0272 -76.6214 220° Southwest 346 398 16,000 -492 Level New York Center
Wed 09:05:43 PM 40.9542 -76.7058 221° Southwest 351 404 15,000 -942 Descending New York Center
Wed 09:06:43 PM 40.8925 -76.7719 219° Southwest 339 390 14,100 -508 Descending New York Center
Wed 09:07:41 PM 40.8219 -76.8478 219° Southwest 333 383 14,000 -50 Descending New York Center
Wed 09:08:42 PM 40.7242 -76.8886 198° South 333 383 14,000  Level New York Center
Wed 09:09:43 PM 40.6417 -76.9114 192° South 343 395 14,000  Level New York Center
Wed 09:10:43 PM 40.5419 -76.9461 195° South 343 395 14,000  Level New York Center
Wed 09:11:40 PM 40.4528 -76.9736 193° South 338 389 14,000 -101 Level New York Center
Wed 09:12:42 PM 40.3617 -77.0036 194° South 338 389 13,800 -732 Descending New York Center
Wed 09:13:43 PM 40.2681 -77.0358 195° South 343 395 12,500 -1,210 Descending New York Center
Wed 09:14:41 PM 40.1747 -77.0683 195° South 343 395 11,400 -1,210 Descending New York Center
Wed 09:15:42 PM 40.0922 -77.0933 193° South 332 382 10,100 -842 Descending New York Center
Wed 09:17:32 PM 39.9500 -77.1333 192° South 297 342 9,000 -391 Descending Potomac TRACON
Wed 09:18:31 PM 39.8667 -77.1833 205° Southwest 291 335 9,000  Level Potomac TRACON
Wed 09:19:26 PM 39.8167 -77.2167 207° Southwest 288 331 9,000 -522 Level Potomac TRACON
Wed 09:20:26 PM 39.7333 -77.2667 205° Southwest 289 333 8,000 -1,000 Descending Potomac TRACON
Wed 09:21:26 PM 39.6667 -77.3167 210° Southwest 278 320 7,000 -857 Descending Potomac TRACON
Wed 09:22:32 PM 39.5833 -77.3333 189° South 272 313 6,200 -476 Descending Potomac TRACON
Wed 09:23:32 PM 39.5167 -77.3333 180° South 269 310 6,000 -105 Descending Potomac TRACON
Wed 09:24:26 PM 39.4500 -77.3333 180° South 267 307 6,000 -500 Level Potomac TRACON
Wed 09:25:20 PM 39.3833 -77.3500 191° South 264 304 5,100 -950 Descending Potomac TRACON
Wed 09:26:26 PM 39.3000 -77.3500 180° South 256 295 4,100 -524 Descending Potomac TRACON
Wed 09:27:26 PM 39.2333 -77.3500 180° South 255 293 4,000 -50 Descending Potomac TRACON
Wed 09:28:26 PM 39.1500 -77.3500 180° South 254 292 4,000  Level Potomac TRACON
Wed 09:29:26 PM 39.0833 -77.3500 180° South 252 290 4,000  Level Potomac TRACON
Wed 09:30:26 PM 39.0167 -77.3500 180° South 252 290 4,000 -100 Level Potomac TRACON
Wed 09:31:26 PM 38.9500 -77.3500 180° South 256 295 3,800 -450 Descending Potomac TRACON
Wed 09:32:26 PM 38.8833 -77.3500 180° South 251 289 3,100 -400 Descending Potomac TRACON
Wed 09:33:26 PM 38.8167 -77.3667 191° South 214 246 3,000 -100 Descending Potomac TRACON

Login

Don't have an account? Register now (free) for customized features, flight alerts, and more!